Pagrindinis puslapis
METAR-TAF:

METAR-TAF

Oro uostai :

Dubajaus tarptautinis oro uostas

Dubajus, Jungtiniai Arabų Emyratai

platuma: 25-15-10N, ilguma: 055-21-52E, Aukštis: 8 m

Dabartinis oras

Ataskaita buvo paskelbta 28 minutes, ne 09:00 UTC
Vėjas 10 kt iš Vakarų/Pietvakarių
Temperatūra 26°C
Drėgmė 37%
Slėgis 1017 hPa
Matomumas 10 km arba daugiau
nėra debesų žemiau 1500 m ir nėra kamuolinių lietaus debesų

METAR: OMDB 200900Z 25010KT CAVOK 26/10 Q1017 NOSIG

Laikas: 13:28 (09:28 UTC)

Prognozė

Ataskaita buvo paskelbta 4 valandos ir 37 minutes, ne 04:51 UTC
Prognozė galioja nuo 20 metu 06 UTC su 21 metu 12 UTC
Vėjas 8 kt iš Pietų/Pietvakarių
Matomumas 10 km arba daugiau
nėra debesų žemiau 1500 m ir nėra kamuolinių lietaus debesų
Tapsmas
nuo 20 metu 08 UTC su 20 metu 10 UTC
Vėjas 13 kt iš Vakarų
Tapsmas
nuo 20 metu 18 UTC su 20 metu 20 UTC
Vėjas 5 kt iš Pietų/Pietvakarių
Tapsmas
nuo 21 metu 06 UTC su 21 metu 08 UTC
Vėjas 10 kt iš Vakarų

TAF: OMDB 200451Z 2006/2112 21008KT CAVOK BECMG 2008/2010 28013KT BECMG 2018/2020 20005KT BECMG 2106/2108 27010KT

Orai ataskaitas ir orų prognozės (METAR, TAF).

turimą stotys yra geltonos ir raudonos taškus žemėlapyje.

Perkelti pele per norėdami pamatyti stoties vardą.

Tada spustelėkite, norėdami matyti oro stebėjimo ir prognozės.

Norėdami pakeisti žemėlapį: spustelėkite ant žalios mygtukų su juodo kryžiaus žemyn,; žalią mygtuką su brūkšneliu, jei norite nutolinti; arba žalių rodyklių gretimoms žemėlapius.


METAR-TAF: